sensor_id;sensor_type;location;lat;lon;timestamp;pressure;altitude;pressure_sealevel;temperature;humidity
41044;BME280;51680;49.806;18.774;2023-02-10T00:02:43;99065.44;;;0.53;50.47
41044;BME280;51680;49.806;18.774;2023-02-10T00:05:45;99068.84;;;0.55;50.51
41044;BME280;51680;49.806;18.774;2023-02-10T00:08:50;99066.28;;;0.55;50.51
41044;BME280;51680;49.806;18.774;2023-02-10T00:11:52;99067.16;;;0.54;50.73
41044;BME280;51680;49.806;18.774;2023-02-10T00:15:00;99065.41;;;0.56;50.30
41044;BME280;51680;49.806;18.774;2023-02-10T00:18:02;99064.56;;;0.47;50.68
41044;BME280;51680;49.806;18.774;2023-02-10T00:21:05;99054.25;;;0.36;50.93
41044;BME280;51680;49.806;18.774;2023-02-10T00:24:09;99060.22;;;0.26;51.49
41044;BME280;51680;49.806;18.774;2023-02-10T00:27:11;99067.94;;;0.29;51.10
41044;BME280;51680;49.806;18.774;2023-02-10T00:30:13;99067.09;;;0.36;51.01
41044;BME280;51680;49.806;18.774;2023-02-10T00:33:14;99064.53;;;0.43;51.00
41044;BME280;51680;49.806;18.774;2023-02-10T00:36:18;99068.78;;;0.31;52.27
41044;BME280;51680;49.806;18.774;2023-02-10T00:39:21;99060.22;;;0.29;51.46
41044;BME280;51680;49.806;18.774;2023-02-10T00:42:23;99053.38;;;0.25;51.73
41044;BME280;51680;49.806;18.774;2023-02-10T00:45:24;99041.34;;;0.16;52.21
41044;BME280;51680;49.806;18.774;2023-02-10T00:48:26;99039.63;;;0.11;51.95
41044;BME280;51680;49.806;18.774;2023-02-10T00:51:28;99054.16;;;0.08;52.20
41044;BME280;51680;49.806;18.774;2023-02-10T00:54:32;99033.63;;;0.06;52.73
41044;BME280;51680;49.806;18.774;2023-02-10T00:57:34;99027.59;;;0.04;52.45
41044;BME280;51680;49.806;18.774;2023-02-10T01:00:36;99024.19;;;0.02;52.91
41044;BME280;51680;49.806;18.774;2023-02-10T01:03:38;99014.75;;;-0.04;53.01
41044;BME280;51680;49.806;18.774;2023-02-10T01:06:40;99006.97;;;-0.20;54.49
41044;BME280;51680;49.806;18.774;2023-02-10T01:09:43;98983.84;;;-0.38;55.46
41044;BME280;51680;49.806;18.774;2023-02-10T01:12:45;98972.69;;;-0.40;55.32
41044;BME280;51680;49.806;18.774;2023-02-10T01:15:47;98963.28;;;-0.47;55.15
41044;BME280;51680;49.806;18.774;2023-02-10T01:18:48;98963.28;;;-0.49;55.96
41044;BME280;51680;49.806;18.774;2023-02-10T01:21:50;98968.44;;;-0.40;54.64
41044;BME280;51680;49.806;18.774;2023-02-10T01:24:53;98973.53;;;-0.43;55.48
41044;BME280;51680;49.806;18.774;2023-02-10T01:27:56;98976.97;;;-0.39;54.78
41044;BME280;51680;49.806;18.774;2023-02-10T01:30:57;98970.16;;;-0.43;55.06
41044;BME280;51680;49.806;18.774;2023-02-10T01:34:18;98977.84;;;-0.40;54.80
41044;BME280;51680;49.806;18.774;2023-02-10T01:37:20;98980.44;;;-0.33;54.63
41044;BME280;51680;49.806;18.774;2023-02-10T01:40:26;98982.13;;;-0.36;55.16
41044;BME280;51680;49.806;18.774;2023-02-10T01:43:28;98991.56;;;-0.32;54.46
41044;BME280;51680;49.806;18.774;2023-02-10T01:46:30;98975.34;;;-0.22;54.42
41044;BME280;51680;49.806;18.774;2023-02-10T01:49:38;98982.22;;;-0.14;54.03
41044;BME280;51680;49.806;18.774;2023-02-10T01:52:41;98993.34;;;-0.03;53.47
41044;BME280;51680;49.806;18.774;2023-02-10T01:55:48;98987.38;;;-0.05;53.53
41044;BME280;51680;49.806;18.774;2023-02-10T01:58:51;98989.97;;;-0.03;53.17
41044;BME280;51680;49.806;18.774;2023-02-10T02:01:54;98981.44;;;0.07;53.12
41044;BME280;51680;49.806;18.774;2023-02-10T02:04:59;98993.41;;;0.08;53.24
41044;BME280;51680;49.806;18.774;2023-02-10T02:08:04;98985.72;;;0.14;52.86
41044;BME280;51680;49.806;18.774;2023-02-10T02:11:16;98981.44;;;0.11;52.93
41044;BME280;51680;49.806;18.774;2023-02-10T02:14:29;98971.16;;;0.07;53.19
41044;BME280;51680;49.806;18.774;2023-02-10T02:17:36;98972.88;;;0.05;52.78
41044;BME280;51680;49.806;18.774;2023-02-10T02:21:07;98974.59;;;0.06;52.80
41044;BME280;51680;49.806;18.774;2023-02-10T02:24:21;98972.00;;;0.04;52.46
41044;BME280;51680;49.806;18.774;2023-02-10T02:27:53;98973.72;;;0.05;52.71
41044;BME280;51680;49.806;18.774;2023-02-10T02:34:39;98978.00;;;0.08;52.36
41044;BME280;51680;49.806;18.774;2023-02-10T02:37:43;98985.69;;;0.08;52.36
41044;BME280;51680;49.806;18.774;2023-02-10T02:40:45;98983.16;;;0.14;52.31
41044;BME280;51680;49.806;18.774;2023-02-10T02:43:47;98984.88;;;0.21;52.33
41044;BME280;51680;49.806;18.774;2023-02-10T02:46:54;98987.47;;;0.28;52.42
41044;BME280;51680;49.806;18.774;2023-02-10T02:50:10;98990.91;;;0.29;52.36
41044;BME280;51680;49.806;18.774;2023-02-10T02:53:19;98990.03;;;0.22;52.04
41044;BME280;51680;49.806;18.774;2023-02-10T02:56:28;98991.69;;;0.13;52.19
41044;BME280;51680;49.806;18.774;2023-02-10T02:59:33;98992.53;;;0.01;52.18
41044;BME280;51680;49.806;18.774;2023-02-10T03:02:37;98989.13;;;0.03;52.29
41044;BME280;51680;49.806;18.774;2023-02-10T03:05:43;98990.84;;;0.09;52.26
41044;BME280;51680;49.806;18.774;2023-02-10T03:08:45;98983.13;;;0.02;52.43
41044;BME280;51680;49.806;18.774;2023-02-10T03:11:47;98979.69;;;-0.02;52.26
41044;BME280;51680;49.806;18.774;2023-02-10T03:14:48;98971.97;;;-0.05;52.29
41044;BME280;51680;49.806;18.774;2023-02-10T03:17:50;98977.97;;;-0.06;52.30
41044;BME280;51680;49.806;18.774;2023-02-10T03:21:12;98984.81;;;-0.06;52.42
41044;BME280;51680;49.806;18.774;2023-02-10T03:24:14;98989.13;;;0.01;52.46
41044;BME280;51680;49.806;18.774;2023-02-10T03:27:17;98996.84;;;0.07;52.35
41044;BME280;51680;49.806;18.774;2023-02-10T03:30:19;98996.81;;;0.04;52.07
41044;BME280;51680;49.806;18.774;2023-02-10T03:33:39;98997.66;;;0.01;52.09
41044;BME280;51680;49.806;18.774;2023-02-10T03:36:42;99001.94;;;0.01;52.42
41044;BME280;51680;49.806;18.774;2023-02-10T03:39:44;99007.94;;;-0.02;52.11
41044;BME280;51680;49.806;18.774;2023-02-10T03:42:47;98996.78;;;-0.08;52.52
41044;BME280;51680;49.806;18.774;2023-02-10T03:45:49;98991.66;;;-0.08;52.49
41044;BME280;51680;49.806;18.774;2023-02-10T03:48:50;98977.13;;;-0.03;52.62
41044;BME280;51680;49.806;18.774;2023-02-10T03:51:54;98976.28;;;-0.01;52.76
41044;BME280;51680;49.806;18.774;2023-02-10T03:54:55;98977.97;;;-0.04;52.43
41044;BME280;51680;49.806;18.774;2023-02-10T03:57:57;98981.41;;;-0.01;52.47
41044;BME280;51680;49.806;18.774;2023-02-10T04:00:59;98981.38;;;-0.05;52.63
41044;BME280;51680;49.806;18.774;2023-02-10T04:04:01;98986.50;;;-0.10;52.68
41044;BME280;51680;49.806;18.774;2023-02-10T04:07:04;98989.97;;;-0.03;52.69
41044;BME280;51680;49.806;18.774;2023-02-10T04:10:24;98985.66;;;-0.06;52.64
41044;BME280;51680;49.806;18.774;2023-02-10T04:13:26;98988.25;;;-0.04;52.34
41044;BME280;51680;49.806;18.774;2023-02-10T04:16:27;98981.38;;;-0.11;52.54
41044;BME280;51680;49.806;18.774;2023-02-10T04:19:30;98983.94;;;-0.10;52.61
41044;BME280;51680;49.806;18.774;2023-02-10T04:22:33;98981.34;;;-0.13;52.84
41044;BME280;51680;49.806;18.774;2023-02-10T04:25:35;98983.03;;;-0.28;53.48
41044;BME280;51680;49.806;18.774;2023-02-10T04:28:37;98983.00;;;-0.37;53.72
41044;BME280;51680;49.806;18.774;2023-02-10T04:31:38;98981.28;;;-0.35;53.36
41044;BME280;51680;49.806;18.774;2023-02-10T04:34:40;98995.78;;;-0.45;53.91
41044;BME280;51680;49.806;18.774;2023-02-10T04:37:43;99000.03;;;-0.45;54.25
41044;BME280;51680;49.806;18.774;2023-02-10T04:40:45;99001.69;;;-0.53;54.17
41044;BME280;51680;49.806;18.774;2023-02-10T04:43:47;98997.41;;;-0.54;53.99
41044;BME280;51680;49.806;18.774;2023-02-10T04:46:48;99013.63;;;-0.61;54.44
41044;BME280;51680;49.806;18.774;2023-02-10T04:49:51;99010.25;;;-0.57;54.29
41044;BME280;51680;49.806;18.774;2023-02-10T04:53:12;99015.38;;;-0.54;54.19
41044;BME280;51680;49.806;18.774;2023-02-10T04:56:15;99014.50;;;-0.62;54.45
41044;BME280;51680;49.806;18.774;2023-02-10T04:59:17;99011.88;;;-0.67;54.69
41044;BME280;51680;49.806;18.774;2023-02-10T05:02:18;99008.38;;;-0.79;55.26
41044;BME280;51680;49.806;18.774;2023-02-10T05:05:39;99020.28;;;-0.90;55.39
41044;BME280;51680;49.806;18.774;2023-02-10T05:08:42;99025.34;;;-0.96;55.52
41044;BME280;51680;49.806;18.774;2023-02-10T05:11:44;99025.38;;;-0.92;55.83
41044;BME280;51680;49.806;18.774;2023-02-10T05:14:46;99039.06;;;-0.88;55.41
41044;BME280;51680;49.806;18.774;2023-02-10T05:17:47;99031.38;;;-0.88;55.48
41044;BME280;51680;49.806;18.774;2023-02-10T05:20:50;99035.69;;;-0.84;55.37
41044;BME280;51680;49.806;18.774;2023-02-10T05:23:53;99034.81;;;-0.88;55.69
41044;BME280;51680;49.806;18.774;2023-02-10T05:26:54;99041.56;;;-1.00;56.14
41044;BME280;51680;49.806;18.774;2023-02-10T05:29:56;99043.28;;;-0.99;56.03
41044;BME280;51680;49.806;18.774;2023-02-10T05:32:58;99051.84;;;-0.96;55.70
41044;BME280;51680;49.806;18.774;2023-02-10T05:36:00;99050.97;;;-0.96;56.03
41044;BME280;51680;49.806;18.774;2023-02-10T05:39:03;99062.03;;;-0.99;56.21
41044;BME280;51680;49.806;18.774;2023-02-10T05:42:22;99055.16;;;-1.06;56.40
41044;BME280;51680;49.806;18.774;2023-02-10T05:45:24;99060.28;;;-1.06;56.17
41044;BME280;51680;49.806;18.774;2023-02-10T05:48:25;99064.50;;;-1.12;56.44
41044;BME280;51680;49.806;18.774;2023-02-10T05:51:27;99070.53;;;-1.06;55.92
41044;BME280;51680;49.806;18.774;2023-02-10T05:54:30;99068.84;;;-1.05;56.42
41044;BME280;51680;49.806;18.774;2023-02-10T05:57:32;99078.19;;;-1.10;56.75
41044;BME280;51680;49.806;18.774;2023-02-10T06:00:34;99079.03;;;-1.10;56.48
41044;BME280;51680;49.806;18.774;2023-02-10T06:03:36;99095.28;;;-1.09;56.18
41044;BME280;51680;49.806;18.774;2023-02-10T06:06:37;99092.78;;;-1.03;56.17
41044;BME280;51680;49.806;18.774;2023-02-10T06:09:40;99091.81;;;-1.11;56.91
41044;BME280;51680;49.806;18.774;2023-02-10T06:12:42;99096.13;;;-1.10;56.09
41044;BME280;51680;49.806;18.774;2023-02-10T06:15:44;99098.75;;;-1.01;56.17
41044;BME280;51680;49.806;18.774;2023-02-10T06:18:46;99103.06;;;-0.97;56.36
41044;BME280;51680;49.806;18.774;2023-02-10T06:21:48;99106.50;;;-0.94;56.06
41044;BME280;51680;49.806;18.774;2023-02-10T06:24:51;99105.78;;;-0.79;55.87
41044;BME280;51680;49.806;18.774;2023-02-10T06:27:53;99093.31;;;-0.27;55.19
41044;BME280;51680;49.806;18.774;2023-02-10T06:30:55;99090.94;;;0.08;54.18
41044;BME280;51680;49.806;18.774;2023-02-10T06:33:57;99083.47;;;1.13;52.57
41044;BME280;51680;49.806;18.774;2023-02-10T06:36:59;99078.09;;;2.29;49.72
41044;BME280;51680;49.806;18.774;2023-02-10T06:40:02;99082.66;;;3.22;47.86
41044;BME280;51680;49.806;18.774;2023-02-10T06:43:04;99071.13;;;4.39;45.87
41044;BME280;51680;49.806;18.774;2023-02-10T06:46:05;99074.41;;;5.10;44.31
41044;BME280;51680;49.806;18.774;2023-02-10T06:49:08;99069.66;;;5.88;42.69
41044;BME280;51680;49.806;18.774;2023-02-10T06:52:10;99083.78;;;6.58;41.92
41044;BME280;51680;49.806;18.774;2023-02-10T06:55:13;99070.09;;;7.93;39.77
41044;BME280;51680;49.806;18.774;2023-02-10T06:58:15;99076.47;;;9.04;38.86
41044;BME280;51680;49.806;18.774;2023-02-10T07:01:17;99076.78;;;10.23;37.84
41044;BME280;51680;49.806;18.774;2023-02-10T07:04:19;99080.81;;;11.65;36.69
41044;BME280;51680;49.806;18.774;2023-02-10T07:07:40;99076.69;;;13.15;34.08
41044;BME280;51680;49.806;18.774;2023-02-10T07:10:43;99074.34;;;13.97;31.69
41044;BME280;51680;49.806;18.774;2023-02-10T07:13:45;99079.34;;;13.85;32.56
41044;BME280;51680;49.806;18.774;2023-02-10T07:16:47;99081.78;;;15.04;32.13
41044;BME280;51680;49.806;18.774;2023-02-10T07:19:48;99072.56;;;16.32;30.88
41044;BME280;51680;49.806;18.774;2023-02-10T07:22:50;99076.94;;;17.03;30.08
41044;BME280;51680;49.806;18.774;2023-02-10T07:25:54;99073.47;;;17.43;27.97
41044;BME280;51680;49.806;18.774;2023-02-10T07:28:55;99081.69;;;17.91;28.43
41044;BME280;51680;49.806;18.774;2023-02-10T07:31:57;99091.22;;;18.06;28.20
41044;BME280;51680;49.806;18.774;2023-02-10T07:34:59;99098.38;;;18.94;27.83
41044;BME280;51680;49.806;18.774;2023-02-10T07:38:01;99090.06;;;20.06;27.01
41044;BME280;51680;49.806;18.774;2023-02-10T07:41:06;99087.47;;;20.74;24.11
41044;BME280;51680;49.806;18.774;2023-02-10T07:44:07;99094.59;;;20.73;25.56
41044;BME280;51680;49.806;18.774;2023-02-10T07:47:09;99084.94;;;20.61;25.54
41044;BME280;51680;49.806;18.774;2023-02-10T07:50:11;99084.09;;;20.83;24.56
41044;BME280;51680;49.806;18.774;2023-02-10T07:53:13;99085.03;;;20.82;25.58
41044;BME280;51680;49.806;18.774;2023-02-10T07:56:16;99088.03;;;21.54;24.55
41044;BME280;51680;49.806;18.774;2023-02-10T07:59:18;99084.72;;;22.15;24.25
41044;BME280;51680;49.806;18.774;2023-02-10T08:02:20;99089.59;;;21.57;24.13
41044;BME280;51680;49.806;18.774;2023-02-10T08:05:21;99092.34;;;21.77;24.44
41044;BME280;51680;49.806;18.774;2023-02-10T08:08:23;99093.94;;;21.58;23.90
41044;BME280;51680;49.806;18.774;2023-02-10T08:11:26;99091.66;;;21.53;23.46
41044;BME280;51680;49.806;18.774;2023-02-10T08:14:28;99096.31;;;20.96;23.48
41044;BME280;51680;49.806;18.774;2023-02-10T08:17:30;99091.44;;;19.65;23.44
41044;BME280;51680;49.806;18.774;2023-02-10T08:20:31;99103.81;;;19.41;24.33
41044;BME280;51680;49.806;18.774;2023-02-10T08:23:34;99105.78;;;20.09;23.46
41044;BME280;51680;49.806;18.774;2023-02-10T08:26:37;99108.53;;;19.84;22.98
41044;BME280;51680;49.806;18.774;2023-02-10T08:29:39;99112.34;;;20.27;23.86
41044;BME280;51680;49.806;18.774;2023-02-10T08:32:41;99110.16;;;20.89;22.78
41044;BME280;51680;49.806;18.774;2023-02-10T08:35:42;99102.03;;;22.30;22.88
41044;BME280;51680;49.806;18.774;2023-02-10T08:38:44;99100.63;;;23.67;22.01
41044;BME280;51680;49.806;18.774;2023-02-10T08:41:47;99105.22;;;23.16;21.23
41044;BME280;51680;49.806;18.774;2023-02-10T08:44:49;99093.97;;;24.01;21.72
41044;BME280;51680;49.806;18.774;2023-02-10T08:47:51;99105.34;;;25.06;21.07
41044;BME280;51680;49.806;18.774;2023-02-10T08:50:53;99107.78;;;26.07;20.62
41044;BME280;51680;49.806;18.774;2023-02-10T08:53:55;99110.16;;;26.28;20.26
41044;BME280;51680;49.806;18.774;2023-02-10T08:56:58;99116.31;;;26.89;19.63
41044;BME280;51680;49.806;18.774;2023-02-10T09:00:01;99121.16;;;27.44;19.63
41044;BME280;51680;49.806;18.774;2023-02-10T09:03:03;99122.44;;;27.24;19.13
41044;BME280;51680;49.806;18.774;2023-02-10T09:06:04;99119.63;;;27.08;19.32
41044;BME280;51680;49.806;18.774;2023-02-10T09:09:06;99111.94;;;27.13;19.44
41044;BME280;51680;49.806;18.774;2023-02-10T09:12:10;99118.84;;;27.49;18.16
41044;BME280;51680;49.806;18.774;2023-02-10T09:15:12;99114.72;;;26.96;14.10
41044;BME280;51680;49.806;18.774;2023-02-10T09:18:14;99129.50;;;27.08;20.08
41044;BME280;51680;49.806;18.774;2023-02-10T09:21:16;99124.91;;;27.18;19.17
41044;BME280;51680;49.806;18.774;2023-02-10T09:24:18;99114.28;;;26.83;19.24
41044;BME280;51680;49.806;18.774;2023-02-10T09:27:21;99118.53;;;26.93;19.37
41044;BME280;51680;49.806;18.774;2023-02-10T09:30:23;99114.25;;;26.40;19.52
41044;BME280;51680;49.806;18.774;2023-02-10T09:33:25;99118.34;;;25.82;19.86
41044;BME280;51680;49.806;18.774;2023-02-10T09:36:27;99118.69;;;26.49;19.51
41044;BME280;51680;49.806;18.774;2023-02-10T09:39:29;99114.94;;;27.36;18.94
41044;BME280;51680;49.806;18.774;2023-02-10T09:42:41;99112.22;;;27.77;14.82
41044;BME280;51680;49.806;18.774;2023-02-10T09:45:52;99117.31;;;27.80;16.92
41044;BME280;51680;49.806;18.774;2023-02-10T09:49:06;99116.88;;;28.01;16.30
41044;BME280;51680;49.806;18.774;2023-02-10T09:52:17;99120.13;;;27.79;16.28
41044;BME280;51680;49.806;18.774;2023-02-10T09:55:27;99124.28;;;28.31;17.36
41044;BME280;51680;49.806;18.774;2023-02-10T09:58:34;99126.19;;;28.46;16.54
41044;BME280;51680;49.806;18.774;2023-02-10T10:01:40;99125.31;;;27.64;17.99
41044;BME280;51680;49.806;18.774;2023-02-10T10:04:44;99120.47;;;27.09;19.30
41044;BME280;51680;49.806;18.774;2023-02-10T10:07:49;99109.53;;;27.69;17.66
41044;BME280;51680;49.806;18.774;2023-02-10T10:10:52;99104.84;;;27.71;18.53
41044;BME280;51680;49.806;18.774;2023-02-10T10:13:59;99094.44;;;27.01;18.43
41044;BME280;51680;49.806;18.774;2023-02-10T10:17:12;99091.84;;;26.06;15.34
41044;BME280;51680;49.806;18.774;2023-02-10T10:20:37;99101.94;;;26.12;16.60
41044;BME280;51680;49.806;18.774;2023-02-10T10:23:50;99093.56;;;25.80;17.70
41044;BME280;51680;49.806;18.774;2023-02-10T10:27:03;99101.28;;;25.02;17.62
41044;BME280;51680;49.806;18.774;2023-02-10T10:30:38;99090.72;;;24.26;18.74
41044;BME280;51680;49.806;18.774;2023-02-10T10:33:45;99088.44;;;24.69;18.64
41044;BME280;51680;49.806;18.774;2023-02-10T10:36:54;99086.03;;;25.12;18.95
41044;BME280;51680;49.806;18.774;2023-02-10T10:39:59;99088.09;;;25.99;19.41
41044;BME280;51680;49.806;18.774;2023-02-10T10:43:01;99097.66;;;26.36;19.66
41044;BME280;51680;49.806;18.774;2023-02-10T10:46:14;99093.94;;;26.55;17.78
41044;BME280;51680;49.806;18.774;2023-02-10T10:49:16;99087.44;;;25.16;20.50
41044;BME280;51680;49.806;18.774;2023-02-10T10:52:26;99096.31;;;24.51;18.45
41044;BME280;51680;49.806;18.774;2023-02-10T10:55:32;99089.31;;;23.35;20.46
41044;BME280;51680;49.806;18.774;2023-02-10T10:58:39;99076.25;;;22.10;21.24
41044;BME280;51680;49.806;18.774;2023-02-10T11:01:46;99065.13;;;20.54;22.40
41044;BME280;51680;49.806;18.774;2023-02-10T11:04:59;99079.94;;;18.92;22.47
41044;BME280;51680;49.806;18.774;2023-02-10T11:08:04;99091.63;;;17.61;25.57
41044;BME280;51680;49.806;18.774;2023-02-10T11:11:07;99093.78;;;16.44;26.46
41044;BME280;51680;49.806;18.774;2023-02-10T11:14:13;99094.38;;;15.14;27.28
41044;BME280;51680;49.806;18.774;2023-02-10T11:17:25;99089.97;;;14.34;27.36
41044;BME280;51680;49.806;18.774;2023-02-10T11:20:30;99080.00;;;13.73;29.09
41044;BME280;51680;49.806;18.774;2023-02-10T11:23:35;99077.81;;;13.28;29.33
41044;BME280;51680;49.806;18.774;2023-02-10T11:26:39;99070.47;;;12.81;30.34
41044;BME280;51680;49.806;18.774;2023-02-10T11:29:46;99075.50;;;12.47;30.63
41044;BME280;51680;49.806;18.774;2023-02-10T11:32:50;99070.25;;;11.88;31.17
41044;BME280;51680;49.806;18.774;2023-02-10T11:36:04;99059.19;;;11.40;31.70
41044;BME280;51680;49.806;18.774;2023-02-10T11:39:15;99054.13;;;11.14;32.28
41044;BME280;51680;49.806;18.774;2023-02-10T11:42:19;99065.16;;;10.78;32.65
41044;BME280;51680;49.806;18.774;2023-02-10T11:45:24;99069.94;;;10.67;33.10
41044;BME280;51680;49.806;18.774;2023-02-10T11:48:29;99066.28;;;10.25;33.64
41044;BME280;51680;49.806;18.774;2023-02-10T11:51:31;99067.81;;;9.81;34.26
41044;BME280;51680;49.806;18.774;2023-02-10T11:54:32;99062.97;;;9.71;34.55
41044;BME280;51680;49.806;18.774;2023-02-10T11:57:44;99054.50;;;9.38;35.67
41044;BME280;51680;49.806;18.774;2023-02-10T12:01:09;99051.06;;;9.10;35.56
41044;BME280;51680;49.806;18.774;2023-02-10T12:04:29;99067.31;;;8.91;36.14
41044;BME280;51680;49.806;18.774;2023-02-10T12:07:43;99061.06;;;8.69;36.17
41044;BME280;51680;49.806;18.774;2023-02-10T12:10:50;99053.38;;;8.64;36.34
41044;BME280;51680;49.806;18.774;2023-02-10T12:14:01;99054.22;;;8.36;37.11
41044;BME280;51680;49.806;18.774;2023-02-10T12:17:20;99064.41;;;8.43;37.39
41044;BME280;51680;49.806;18.774;2023-02-10T12:20:35;99063.31;;;8.50;37.55
41044;BME280;51680;49.806;18.774;2023-02-10T12:23:50;99056.44;;;8.49;37.99
41044;BME280;51680;49.806;18.774;2023-02-10T12:27:03;99063.78;;;8.35;38.00
41044;BME280;51680;49.806;18.774;2023-02-10T12:30:16;99064.56;;;8.37;38.27
41044;BME280;51680;49.806;18.774;2023-02-10T12:33:42;99066.34;;;8.37;38.16
41044;BME280;51680;49.806;18.774;2023-02-10T12:36:52;99061.47;;;8.25;38.01
41044;BME280;51680;49.806;18.774;2023-02-10T12:40:10;99062.09;;;8.01;38.50
41044;BME280;51680;49.806;18.774;2023-02-10T12:43:23;99076.63;;;7.77;38.75
41044;BME280;51680;49.806;18.774;2023-02-10T12:46:36;99077.41;;;7.79;39.33
41044;BME280;51680;49.806;18.774;2023-02-10T12:49:51;99072.94;;;7.84;39.52
41044;BME280;51680;49.806;18.774;2023-02-10T12:52:58;99071.00;;;7.92;38.96
41044;BME280;51680;49.806;18.774;2023-02-10T12:56:06;99077.75;;;7.99;38.88
41044;BME280;51680;49.806;18.774;2023-02-10T12:59:17;99080.19;;;8.05;39.05
41044;BME280;51680;49.806;18.774;2023-02-10T13:02:23;99077.00;;;7.94;38.90
41044;BME280;51680;49.806;18.774;2023-02-10T13:05:31;99079.47;;;8.00;39.21
41044;BME280;51680;49.806;18.774;2023-02-10T13:08:38;99082.31;;;7.91;39.57
41044;BME280;51680;49.806;18.774;2023-02-10T13:11:48;99074.00;;;7.77;39.29
41044;BME280;51680;49.806;18.774;2023-02-10T13:14:54;99078.31;;;7.78;39.45
41044;BME280;51680;49.806;18.774;2023-02-10T13:18:00;99084.56;;;7.71;39.47
41044;BME280;51680;49.806;18.774;2023-02-10T13:21:06;99092.50;;;7.65;39.53
41044;BME280;51680;49.806;18.774;2023-02-10T13:24:17;99085.78;;;7.58;40.26
41044;BME280;51680;49.806;18.774;2023-02-10T13:27:30;99082.63;;;7.46;40.20
41044;BME280;51680;49.806;18.774;2023-02-10T13:30:48;99089.13;;;7.28;41.09
41044;BME280;51680;49.806;18.774;2023-02-10T13:34:00;99092.53;;;7.30;40.66
41044;BME280;51680;49.806;18.774;2023-02-10T13:37:05;99108.91;;;7.32;40.06
41044;BME280;51680;49.806;18.774;2023-02-10T13:40:14;99098.13;;;7.12;41.80
41044;BME280;51680;49.806;18.774;2023-02-10T13:43:24;99095.28;;;6.86;42.10
41044;BME280;51680;49.806;18.774;2023-02-10T13:46:30;99109.88;;;6.92;41.66
41044;BME280;51680;49.806;18.774;2023-02-10T13:49:32;99107.50;;;6.81;40.94
41044;BME280;51680;49.806;18.774;2023-02-10T13:52:34;99113.66;;;6.77;41.08
41044;BME280;51680;49.806;18.774;2023-02-10T13:55:41;99121.16;;;6.89;41.61
41044;BME280;51680;49.806;18.774;2023-02-10T13:58:49;99121.16;;;6.89;42.01
41044;BME280;51680;49.806;18.774;2023-02-10T14:02:08;99110.78;;;6.89;42.59
41044;BME280;51680;49.806;18.774;2023-02-10T14:05:24;99106.72;;;6.78;42.27
41044;BME280;51680;49.806;18.774;2023-02-10T14:08:30;99103.38;;;6.73;42.27
41044;BME280;51680;49.806;18.774;2023-02-10T14:11:39;99106.59;;;6.84;42.25
41044;BME280;51680;49.806;18.774;2023-02-10T14:14:41;99116.25;;;6.77;41.56
41044;BME280;51680;49.806;18.774;2023-02-10T14:17:52;99118.78;;;6.80;42.94
41044;BME280;51680;49.806;18.774;2023-02-10T14:20:58;99123.31;;;6.69;44.20
41044;BME280;51680;49.806;18.774;2023-02-10T14:24:01;99122.38;;;6.73;42.32
41044;BME280;51680;49.806;18.774;2023-02-10T14:27:05;99118.81;;;6.79;42.66
41044;BME280;51680;49.806;18.774;2023-02-10T14:30:15;99117.88;;;6.81;42.87
41044;BME280;51680;49.806;18.774;2023-02-10T14:33:24;99121.66;;;6.65;42.55
41044;BME280;51680;49.806;18.774;2023-02-10T14:36:27;99130.28;;;6.69;42.02
41044;BME280;51680;49.806;18.774;2023-02-10T14:39:30;99121.63;;;6.68;42.49
41044;BME280;51680;49.806;18.774;2023-02-10T14:42:33;99120.75;;;6.68;42.21
41044;BME280;51680;49.806;18.774;2023-02-10T14:45:35;99116.34;;;6.73;42.16
41044;BME280;51680;49.806;18.774;2023-02-10T14:48:41;99119.78;;;6.73;42.41
41044;BME280;51680;49.806;18.774;2023-02-10T14:51:43;99123.66;;;6.54;42.60
41044;BME280;51680;49.806;18.774;2023-02-10T14:54:46;99122.13;;;6.44;43.09
41044;BME280;51680;49.806;18.774;2023-02-10T14:57:49;99124.97;;;6.32;43.32
41044;BME280;51680;49.806;18.774;2023-02-10T15:00:58;99129.59;;;6.15;43.29
41044;BME280;51680;49.806;18.774;2023-02-10T15:04:02;99121.78;;;6.18;43.33
41044;BME280;51680;49.806;18.774;2023-02-10T15:07:04;99139.31;;;6.06;43.15
41044;BME280;51680;49.806;18.774;2023-02-10T15:10:15;99134.31;;;5.95;44.28
41044;BME280;51680;49.806;18.774;2023-02-10T15:13:26;99136.34;;;5.75;43.85
41044;BME280;51680;49.806;18.774;2023-02-10T15:16:31;99144.38;;;5.60;43.99
41044;BME280;51680;49.806;18.774;2023-02-10T15:19:34;99131.50;;;5.54;43.84
41044;BME280;51680;49.806;18.774;2023-02-10T15:22:38;99138.41;;;5.55;44.25
41044;BME280;51680;49.806;18.774;2023-02-10T15:25:40;99138.44;;;5.54;43.99
41044;BME280;51680;49.806;18.774;2023-02-10T15:28:44;99132.41;;;5.53;43.99
41044;BME280;51680;49.806;18.774;2023-02-10T15:32:15;99137.72;;;5.44;45.90
41044;BME280;51680;49.806;18.774;2023-02-10T15:35:18;99134.50;;;5.30;44.96
41044;BME280;51680;49.806;18.774;2023-02-10T15:38:22;99148.50;;;5.17;45.18
41044;BME280;51680;49.806;18.774;2023-02-10T15:41:34;99147.53;;;5.23;46.18
41044;BME280;51680;49.806;18.774;2023-02-10T15:44:39;99146.78;;;5.16;45.49
41044;BME280;51680;49.806;18.774;2023-02-10T15:47:43;99145.19;;;5.06;45.50
41044;BME280;51680;49.806;18.774;2023-02-10T15:50:45;99147.38;;;4.74;47.63
41044;BME280;51680;49.806;18.774;2023-02-10T15:53:47;99149.19;;;4.69;45.60
41044;BME280;51680;49.806;18.774;2023-02-10T15:56:55;99157.78;;;4.67;46.70
41044;BME280;51680;49.806;18.774;2023-02-10T15:59:58;99168.19;;;4.65;46.12
41044;BME280;51680;49.806;18.774;2023-02-10T16:03:00;99169.00;;;4.69;46.64
41044;BME280;51680;49.806;18.774;2023-02-10T16:06:03;99165.56;;;4.67;46.40
41044;BME280;51680;49.806;18.774;2023-02-10T16:09:04;99175.97;;;4.62;46.32
41044;BME280;51680;49.806;18.774;2023-02-10T16:12:06;99180.38;;;4.54;46.46
41044;BME280;51680;49.806;18.774;2023-02-10T16:15:13;99178.84;;;4.35;47.31
41044;BME280;51680;49.806;18.774;2023-02-10T16:18:18;99190.94;;;4.36;47.30
41044;BME280;51680;49.806;18.774;2023-02-10T16:21:21;99191.78;;;4.37;47.45